createdAt,value
2018-07-07T05:02:42.483Z,16.40
2018-07-07T05:05:11.368Z,16.20
2018-07-07T05:07:40.606Z,16.10
2018-07-07T05:10:10.077Z,16.20
2018-07-07T05:15:08.012Z,16.30
2018-07-07T05:17:36.621Z,16.30
2018-07-07T05:20:05.468Z,16.30
2018-07-07T05:22:34.046Z,16.50
2018-07-07T05:25:03.187Z,16.70
2018-07-07T05:27:32.819Z,16.70
2018-07-07T05:30:02.635Z,16.80
2018-07-07T05:32:31.854Z,16.80
2018-07-07T05:35:00.848Z,16.90
2018-07-07T05:37:29.415Z,16.90
2018-07-07T05:39:58.060Z,17.20
2018-07-07T05:42:26.902Z,17.20
2018-07-07T05:44:57.411Z,17.40
2018-07-07T05:47:26.051Z,17.40
2018-07-07T05:49:54.618Z,17.40
2018-07-07T05:52:23.195Z,17.60
2018-07-07T05:54:51.804Z,17.60
2018-07-07T05:57:20.391Z,17.80
2018-07-07T05:59:49.310Z,17.80
2018-07-07T06:02:17.926Z,17.80
2018-07-07T06:04:47.134Z,17.90
2018-07-07T06:07:15.967Z,18.00
2018-07-07T06:09:44.542Z,18.20
2018-07-07T06:12:13.138Z,18.50
2018-07-07T06:14:43.314Z,18.70
2018-07-07T06:17:11.911Z,18.90
2018-07-07T06:19:40.456Z,19.10
2018-07-07T06:22:09.010Z,19.20
2018-07-07T06:24:37.623Z,19.20
2018-07-07T06:27:06.335Z,19.20
2018-07-07T06:29:34.957Z,19.30
2018-07-07T06:32:34.258Z,19.60
2018-07-07T06:35:02.849Z,19.60
2018-07-07T06:37:32.571Z,19.80
2018-07-07T06:40:01.178Z,19.70
2018-07-07T06:42:29.841Z,19.70
2018-07-07T06:44:58.411Z,19.60
2018-07-07T06:47:27.031Z,19.50
2018-07-07T06:49:55.652Z,19.60
2018-07-07T06:52:24.255Z,19.80
2018-07-07T06:54:52.982Z,20.10
2018-07-07T06:57:21.622Z,20.30
2018-07-07T06:59:50.252Z,20.40
2018-07-07T07:02:18.826Z,20.60
2018-07-07T07:04:47.714Z,20.70
2018-07-07T07:07:16.275Z,20.80
2018-07-07T07:09:47.931Z,20.70
2018-07-07T07:12:16.514Z,20.80
2018-07-07T07:14:45.079Z,20.80
2018-07-07T07:17:13.655Z,20.60
2018-07-07T07:19:42.239Z,20.60
2018-07-07T07:22:11.083Z,20.70
2018-07-07T07:24:39.667Z,20.70
2018-07-07T07:27:08.262Z,20.60
2018-07-07T07:29:38.795Z,20.80
2018-07-07T07:32:07.384Z,20.90
2018-07-07T07:34:36.810Z,20.90
2018-07-07T07:37:05.912Z,21.00
2018-07-07T07:39:34.502Z,21.00
2018-07-07T07:42:03.094Z,21.10
2018-07-07T07:44:31.623Z,20.90
2018-07-07T07:47:00.954Z,20.80
2018-07-07T07:49:29.538Z,21.10
2018-07-07T07:51:58.081Z,21.10
2018-07-07T07:54:26.696Z,21.30
2018-07-07T07:56:55.232Z,21.30
2018-07-07T07:59:26.490Z,21.40
2018-07-07T08:01:55.074Z,21.50
2018-07-07T08:04:23.626Z,21.80
2018-07-07T08:06:52.194Z,21.90
2018-07-07T08:09:20.754Z,21.90
2018-07-07T08:11:49.345Z,21.80
2018-07-07T08:14:17.907Z,21.60
2018-07-07T08:16:46.734Z,21.60
2018-07-07T08:19:16.554Z,21.80
2018-07-07T08:21:45.103Z,21.70
2018-07-07T08:24:13.710Z,21.60
2018-07-07T08:26:42.303Z,21.50
2018-07-07T08:29:10.910Z,21.30
2018-07-07T08:31:40.738Z,21.30
2018-07-07T08:34:09.321Z,21.40
2018-07-07T08:36:38.842Z,21.50
2018-07-07T08:39:07.465Z,21.40
2018-07-07T08:41:36.048Z,21.30
2018-07-07T08:44:04.660Z,21.50
2018-07-07T08:46:33.270Z,21.50
2018-07-07T08:49:01.900Z,21.80
2018-07-07T08:53:58.768Z,22.20
2018-07-07T08:56:27.368Z,22.60
2018-07-07T08:58:56.835Z,22.80
2018-07-07T09:01:25.447Z,23.00
2018-07-07T09:03:53.984Z,23.10
2018-07-07T09:06:22.572Z,23.10
2018-07-07T09:08:51.261Z,23.00
2018-07-07T09:11:19.858Z,22.90
2018-07-07T09:13:48.832Z,23.00
2018-07-07T09:16:17.452Z,23.10
2018-07-07T09:18:46.593Z,23.00
2018-07-07T09:21:15.313Z,23.00
2018-07-07T09:23:44.074Z,23.00
2018-07-07T09:26:12.655Z,23.00
2018-07-07T09:28:41.438Z,23.10
2018-07-07T09:31:10.330Z,23.00
2018-07-07T09:36:14.814Z,23.10
2018-07-07T09:38:43.552Z,23.30
2018-07-07T09:41:13.131Z,23.50
2018-07-07T09:43:41.762Z,23.40
2018-07-07T09:46:10.394Z,23.30
2018-07-07T09:48:38.982Z,23.40
2018-07-07T09:51:08.391Z,23.30
2018-07-07T09:53:36.963Z,23.40
2018-07-07T09:56:05.842Z,23.60
2018-07-07T09:58:34.403Z,23.80
2018-07-07T10:01:02.958Z,23.90
2018-07-07T10:03:46.074Z,24.00
2018-07-07T10:06:14.948Z,23.90
2018-07-07T10:08:43.533Z,24.00
2018-07-07T10:11:12.230Z,24.00
2018-07-07T10:13:41.810Z,24.00
2018-07-07T10:16:10.406Z,24.30
2018-07-07T10:18:39.762Z,24.20
2018-07-07T10:21:08.377Z,24.20
2018-07-07T10:23:36.928Z,24.20
2018-07-07T10:26:05.886Z,24.20
2018-07-07T10:28:34.447Z,24.10
2018-07-07T10:33:31.273Z,24.30
2018-07-07T10:36:00.882Z,24.30
2018-07-07T10:38:30.434Z,24.30
2018-07-07T10:40:59.059Z,24.40
2018-07-07T10:43:28.125Z,24.30
2018-07-07T10:45:57.575Z,24.40
2018-07-07T10:48:27.150Z,24.60
2018-07-07T10:50:56.679Z,24.60
2018-07-07T10:53:25.243Z,24.60
2018-07-07T10:55:53.847Z,24.70
2018-07-07T10:58:22.399Z,24.90
2018-07-07T11:00:50.965Z,25.10
2018-07-07T11:03:19.843Z,25.10
2018-07-07T11:05:48.398Z,25.10
2018-07-07T11:08:16.993Z,25.00
2018-07-07T11:10:45.574Z,25.10
2018-07-07T11:13:14.151Z,25.00
2018-07-07T11:15:42.738Z,25.00
2018-07-07T11:18:11.389Z,25.50
2018-07-07T11:20:39.971Z,25.60
2018-07-07T11:23:08.619Z,25.50
2018-07-07T11:25:37.258Z,25.50
2018-07-07T11:28:07.763Z,25.40
2018-07-07T11:30:36.342Z,25.60
2018-07-07T11:33:04.923Z,25.90
2018-07-07T11:35:33.487Z,26.40
2018-07-07T11:38:02.064Z,26.40
2018-07-07T11:40:30.699Z,26.60
2018-07-07T11:42:59.340Z,27.00
2018-07-07T11:45:27.986Z,26.60
2018-07-07T11:48:01.483Z,26.40
2018-07-07T11:50:30.123Z,26.60
2018-07-07T11:52:58.677Z,26.60
2018-07-07T11:55:27.267Z,26.90
2018-07-07T11:57:57.086Z,26.60
2018-07-07T12:00:25.670Z,26.50
2018-07-07T12:02:54.348Z,26.80
2018-07-07T12:05:23.249Z,26.50
2018-07-07T12:08:00.714Z,26.50
2018-07-07T12:10:21.355Z,27.70
2018-07-07T12:12:49.915Z,27.80
2018-07-07T12:15:18.502Z,27.10
2018-07-07T12:17:47.090Z,27.50
2018-07-07T12:20:15.640Z,28.70
2018-07-07T12:22:47.126Z,29.50
2018-07-07T12:25:15.726Z,29.50
2018-07-07T12:27:45.615Z,28.80
2018-07-07T12:30:14.623Z,28.00
2018-07-07T12:32:43.214Z,28.10
2018-07-07T12:35:11.914Z,29.30
2018-07-07T12:37:40.526Z,29.40
2018-07-07T12:40:10.106Z,30.10
2018-07-07T12:42:39.602Z,30.30
2018-07-07T12:45:09.160Z,30.20
2018-07-07T12:47:38.266Z,30.40
2018-07-07T12:50:07.263Z,30.90
2018-07-07T12:52:36.649Z,30.80
2018-07-07T12:55:06.126Z,30.20
2018-07-07T12:57:35.426Z,29.60
2018-07-07T13:00:04.569Z,29.60
2018-07-07T13:02:33.515Z,30.20
2018-07-07T13:05:02.371Z,29.20
2018-07-07T13:07:31.787Z,28.70
2018-07-07T13:10:00.994Z,28.70
2018-07-07T13:12:29.734Z,28.10
2018-07-07T13:14:59.318Z,27.80
2018-07-07T13:17:28.434Z,27.70
2018-07-07T13:19:57.634Z,27.10
2018-07-07T13:22:27.661Z,26.70
2018-07-07T13:24:56.757Z,26.50
2018-07-07T13:27:25.813Z,26.90
2018-07-07T13:29:55.126Z,28.00
2018-07-07T13:32:24.331Z,28.40
2018-07-07T13:34:53.194Z,28.00
2018-07-07T13:37:21.792Z,28.10
2018-07-07T13:39:50.821Z,28.70
2018-07-07T13:42:19.824Z,28.70
2018-07-07T13:44:50.415Z,28.50
2018-07-07T13:47:25.435Z,28.50
2018-07-07T13:49:54.986Z,28.80
2018-07-07T13:52:23.582Z,29.10
2018-07-07T13:54:52.455Z,28.60
2018-07-07T13:57:21.095Z,28.10
2018-07-07T13:59:49.792Z,28.40
2018-07-07T14:02:19.193Z,28.90
2018-07-07T14:04:47.805Z,28.80
2018-07-07T14:07:16.930Z,28.90
2018-07-07T14:09:45.571Z,29.50
2018-07-07T14:12:15.171Z,29.80
2018-07-07T14:14:43.762Z,30.10
2018-07-07T14:17:12.464Z,29.80
2018-07-07T14:19:41.015Z,30.20
2018-07-07T14:22:09.605Z,29.70
2018-07-07T14:24:38.154Z,29.40
2018-07-07T14:27:06.775Z,29.30
2018-07-07T14:29:35.510Z,29.20
2018-07-07T14:32:05.651Z,28.70
2018-07-07T14:37:02.499Z,28.50
2018-07-07T14:39:40.262Z,28.00
2018-07-07T14:42:51.580Z,27.60
2018-07-07T14:45:23.370Z,27.80
2018-07-07T14:47:52.996Z,28.20
2018-07-07T14:50:21.755Z,28.50
2018-07-07T14:55:19.877Z,28.90
2018-07-07T14:57:49.474Z,29.00
2018-07-07T15:00:22.118Z,29.10
2018-07-07T15:02:51.772Z,29.30
2018-07-07T15:05:20.379Z,28.80
2018-07-07T15:07:49.370Z,28.90
2018-07-07T15:10:21.642Z,29.10
2018-07-07T15:12:50.289Z,29.30
2018-07-07T15:15:19.482Z,29.00
2018-07-07T15:17:48.098Z,28.20
2018-07-07T15:20:16.696Z,27.80
2018-07-07T15:22:46.373Z,27.40
2018-07-07T15:25:14.854Z,27.10
2018-07-07T15:27:44.362Z,26.60
2018-07-07T15:30:12.995Z,26.80
2018-07-07T15:32:41.565Z,27.20
2018-07-07T15:35:11.120Z,27.60
2018-07-07T15:37:40.051Z,27.90
2018-07-07T15:40:09.119Z,27.60
2018-07-07T15:42:37.750Z,27.30
2018-07-07T15:45:06.322Z,27.00
2018-07-07T15:47:35.863Z,26.70
2018-07-07T15:50:05.546Z,26.80
2018-07-07T15:52:34.695Z,26.60
2018-07-07T15:55:09.709Z,26.80
2018-07-07T15:57:38.369Z,27.20
2018-07-07T16:00:08.942Z,27.50
2018-07-07T16:02:37.967Z,27.90
2018-07-07T16:05:06.777Z,28.10
2018-07-07T16:07:35.396Z,28.20
2018-07-07T16:10:04.218Z,28.00
2018-07-07T16:12:33.123Z,28.10
2018-07-07T16:15:01.731Z,28.10
2018-07-07T16:17:30.318Z,28.20
2018-07-07T16:19:58.874Z,28.10
2018-07-07T16:22:27.463Z,28.10
2018-07-07T16:24:56.442Z,28.20
2018-07-07T16:27:25.085Z,28.20
2018-07-07T16:29:54.065Z,28.00
2018-07-07T16:32:25.082Z,27.80
2018-07-07T16:34:54.123Z,27.80
2018-07-07T16:37:23.774Z,27.90
2018-07-07T16:39:52.615Z,28.00
2018-07-07T16:42:22.380Z,28.20
2018-07-07T16:44:51.047Z,28.10
2018-07-07T16:47:22.714Z,28.00
2018-07-07T16:49:51.339Z,28.00
2018-07-07T16:52:21.980Z,28.10
2018-07-07T16:54:50.640Z,28.00
2018-07-07T16:57:19.250Z,27.80
2018-07-07T16:59:47.951Z,28.00
2018-07-07T17:02:17.636Z,27.60
2018-07-07T17:04:46.332Z,27.40
2018-07-07T17:10:00.098Z,27.30
2018-07-07T17:12:28.777Z,27.00
2018-07-07T17:14:57.463Z,26.70
2018-07-07T17:17:26.147Z,26.90
2018-07-07T17:19:54.806Z,26.90
2018-07-07T17:22:23.730Z,26.90
2018-07-07T17:24:52.452Z,27.10
2018-07-07T17:27:21.129Z,27.10
2018-07-07T17:29:50.642Z,27.30
2018-07-07T17:32:20.147Z,27.30
2018-07-07T17:34:48.830Z,27.40
2018-07-07T17:39:45.775Z,27.40
2018-07-07T17:42:14.454Z,27.50
2018-07-07T17:44:43.971Z,27.50
2018-07-07T17:47:12.715Z,27.40
2018-07-07T17:49:41.356Z,27.20
2018-07-07T17:52:10.039Z,27.30
2018-07-07T17:54:39.008Z,27.20
2018-07-07T17:57:07.693Z,27.00
2018-07-07T17:59:36.614Z,27.00
2018-07-07T18:02:05.935Z,27.20
2018-07-07T18:04:34.629Z,27.10
2018-07-07T18:07:03.187Z,27.20
2018-07-07T18:09:31.797Z,27.50
2018-07-07T18:12:01.627Z,27.40
2018-07-07T18:14:30.209Z,27.20
2018-07-07T18:16:58.806Z,27.30
2018-07-07T18:19:28.086Z,27.10
2018-07-07T18:21:56.664Z,27.00
2018-07-07T18:24:25.486Z,26.70
2018-07-07T18:26:54.098Z,26.70
2018-07-07T18:29:23.738Z,27.20
2018-07-07T18:31:53.589Z,27.20
2018-07-07T18:34:23.388Z,27.40
2018-07-07T18:36:52.889Z,27.40
2018-07-07T18:39:22.558Z,27.60
2018-07-07T18:41:54.175Z,27.80
2018-07-07T18:44:24.132Z,27.80
2018-07-07T18:46:57.726Z,27.20
2018-07-07T18:49:27.809Z,26.50
2018-07-07T18:54:36.138Z,25.90
2018-07-07T18:57:04.999Z,25.90
2018-07-07T18:59:35.012Z,26.10
2018-07-07T19:02:07.514Z,25.80
2018-07-07T19:07:07.977Z,24.70
2018-07-07T19:09:38.321Z,24.30
2018-07-07T19:12:07.881Z,24.10
2018-07-07T19:14:37.439Z,23.80
2018-07-07T19:17:09.735Z,23.70
2018-07-07T19:19:41.228Z,23.60
2018-07-07T19:22:16.962Z,23.50
2018-07-07T19:24:50.847Z,23.40
2018-07-07T19:27:19.443Z,23.30
2018-07-07T19:29:48.959Z,23.20
2018-07-07T19:32:22.994Z,23.10
2018-07-07T19:34:57.183Z,23.00
2018-07-07T19:37:26.101Z,22.90
2018-07-07T19:39:54.806Z,22.90
2018-07-07T19:42:25.332Z,22.90
2018-07-07T19:44:54.002Z,22.90
2018-07-07T19:47:23.034Z,22.70
2018-07-07T19:52:26.765Z,22.70
2018-07-07T19:57:23.552Z,22.40
2018-07-07T19:59:52.988Z,22.40
2018-07-07T20:02:21.689Z,22.30
2018-07-07T20:04:50.298Z,22.30
2018-07-07T20:07:18.970Z,22.20
2018-07-07T20:09:47.561Z,22.20
2018-07-07T20:12:16.180Z,22.10
2018-07-07T20:14:44.887Z,22.00
2018-07-07T20:17:14.711Z,22.00
2018-07-07T20:20:58.571Z,21.90
2018-07-07T20:23:28.746Z,21.90
2018-07-07T20:26:02.094Z,21.80
2018-07-07T20:28:36.175Z,21.80
2018-07-07T20:31:04.833Z,21.70
2018-07-07T20:33:33.649Z,21.60
2018-07-07T20:36:02.522Z,21.50
2018-07-07T20:38:31.916Z,21.50
2018-07-07T20:41:00.655Z,21.50
2018-07-07T20:43:29.418Z,21.40
2018-07-07T20:45:58.075Z,21.40
2018-07-07T20:48:26.766Z,21.30
2018-07-07T20:50:55.384Z,21.20
2018-07-07T20:53:23.945Z,21.10
2018-07-07T20:55:52.643Z,21.10
2018-07-07T20:58:21.328Z,21.00
2018-07-07T21:00:50.737Z,21.00
2018-07-07T21:03:19.765Z,21.00
2018-07-07T21:06:02.808Z,20.90
2018-07-07T21:08:32.286Z,20.80
2018-07-07T21:11:02.391Z,20.90
2018-07-07T21:13:31.021Z,20.80
2018-07-07T21:15:59.622Z,20.80
2018-07-07T21:18:28.225Z,20.80
2018-07-07T21:20:56.791Z,20.70
2018-07-07T21:23:25.685Z,20.60
2018-07-07T21:25:54.579Z,20.50
2018-07-07T21:28:23.642Z,20.40
2018-07-07T21:30:52.275Z,20.40
2018-07-07T21:33:21.254Z,20.20
2018-07-07T21:35:49.894Z,20.00
2018-07-07T21:38:18.659Z,20.00
2018-07-07T21:40:47.628Z,20.10
2018-07-07T21:43:16.826Z,20.30
2018-07-07T21:45:45.395Z,20.20
2018-07-07T21:48:15.028Z,20.20
2018-07-07T21:50:43.694Z,20.30
2018-07-07T21:53:12.633Z,20.30
2018-07-07T21:55:41.315Z,20.30
2018-07-07T21:58:15.150Z,20.20
2018-07-07T22:01:00.386Z,20.20
2018-07-07T22:06:30.521Z,20.00
2018-07-07T22:08:59.671Z,19.80
2018-07-07T22:11:28.289Z,19.70
2018-07-07T22:13:56.982Z,19.60
2018-07-07T22:16:25.855Z,19.60
2018-07-07T22:18:54.489Z,19.80
2018-07-07T22:21:37.395Z,19.90
2018-07-07T22:24:05.979Z,19.80
2018-07-07T22:26:34.673Z,19.90
2018-07-07T22:29:03.544Z,19.80
2018-07-07T22:31:32.325Z,19.80
2018-07-07T22:34:01.073Z,19.60
2018-07-07T22:36:33.616Z,19.60
2018-07-07T22:39:02.511Z,19.60
2018-07-07T22:42:03.362Z,19.40
2018-07-07T22:44:33.696Z,19.20
2018-07-07T22:47:02.444Z,19.00
2018-07-07T22:49:31.535Z,18.90
2018-07-07T22:52:00.211Z,18.90
2018-07-07T22:54:28.896Z,18.80
2018-07-07T22:56:57.707Z,18.70
2018-07-07T22:59:26.446Z,18.50
